createdAt,value
2022-08-17T00:00:08.411Z,16.55
2022-08-17T00:01:08.492Z,16.56
2022-08-17T00:02:21.183Z,16.56
2022-08-17T00:03:09.392Z,16.56
2022-08-17T00:04:11.832Z,16.55
2022-08-17T00:05:08.369Z,16.53
2022-08-17T00:06:08.355Z,16.52
2022-08-17T00:07:08.338Z,16.50
2022-08-17T00:08:08.319Z,16.48
2022-08-17T00:09:08.309Z,16.42
2022-08-17T00:10:08.309Z,16.37
2022-08-17T00:11:08.300Z,16.37
2022-08-17T00:12:43.550Z,16.35
2022-08-17T00:13:09.267Z,16.35
2022-08-17T00:14:08.259Z,16.34
2022-08-17T00:15:10.703Z,16.35
2022-08-17T00:16:08.230Z,16.35
2022-08-17T00:17:08.217Z,16.34
2022-08-17T00:19:02.183Z,16.34
2022-08-17T00:19:09.198Z,16.37
2022-08-17T00:20:08.187Z,16.35
2022-08-17T00:21:10.499Z,16.35
2022-08-17T00:22:33.585Z,16.37
2022-08-17T00:23:09.147Z,16.37
2022-08-17T00:24:08.137Z,16.37
2022-08-17T00:25:08.127Z,16.34
2022-08-17T00:26:08.118Z,16.33
2022-08-17T00:27:08.347Z,16.31
2022-08-17T00:28:08.086Z,16.33
2022-08-17T00:29:08.076Z,16.30
2022-08-17T00:30:08.067Z,16.26
2022-08-17T00:31:08.057Z,16.23
2022-08-17T00:33:14.778Z,16.22
2022-08-17T00:33:22.894Z,16.16
2022-08-17T00:34:09.017Z,16.16
2022-08-17T00:35:08.007Z,16.15
2022-08-17T00:36:07.996Z,16.15
2022-08-17T00:37:07.987Z,16.12
2022-08-17T00:38:07.984Z,16.11
2022-08-17T00:39:07.967Z,16.11
2022-08-17T00:40:08.039Z,16.09
2022-08-17T00:41:07.936Z,16.09
2022-08-17T00:42:07.925Z,16.11
2022-08-17T00:43:07.926Z,16.07
2022-08-17T00:44:07.905Z,16.06
2022-08-17T00:45:07.895Z,16.07
2022-08-17T00:46:07.876Z,16.06
2022-08-17T00:47:07.865Z,16.04
2022-08-17T00:48:11.495Z,16.04
2022-08-17T00:49:08.845Z,16.07
2022-08-17T00:50:07.836Z,16.06
2022-08-17T00:51:07.909Z,16.06
2022-08-17T00:52:11.928Z,16.04
2022-08-17T00:53:07.804Z,16.04
2022-08-17T00:54:07.844Z,16.01
2022-08-17T00:55:07.787Z,16.01
2022-08-17T00:56:07.763Z,16.01
2022-08-17T00:57:07.783Z,16.03
2022-08-17T00:58:07.734Z,15.99
2022-08-17T00:59:07.723Z,16.01
2022-08-17T01:00:07.723Z,16.00
2022-08-17T01:01:07.754Z,16.00
2022-08-17T01:02:07.691Z,15.97
2022-08-17T01:03:07.684Z,15.96
2022-08-17T01:04:07.665Z,15.94
2022-08-17T01:05:07.653Z,15.93
2022-08-17T01:06:07.654Z,15.89
2022-08-17T01:07:07.633Z,15.88
2022-08-17T01:08:07.614Z,15.88
2022-08-17T01:09:07.613Z,15.88
2022-08-17T01:10:07.602Z,15.86
2022-08-17T01:11:08.623Z,15.86
2022-08-17T01:12:07.573Z,15.85
2022-08-17T01:13:07.562Z,15.84
2022-08-17T01:14:07.551Z,15.84
2022-08-17T01:15:07.541Z,15.85
2022-08-17T01:16:07.522Z,15.82
2022-08-17T01:17:07.541Z,15.84
2022-08-17T01:18:07.515Z,15.84
2022-08-17T01:19:07.501Z,15.82
2022-08-17T01:20:07.483Z,15.82
2022-08-17T01:21:07.462Z,15.81
2022-08-17T01:22:07.461Z,15.78
2022-08-17T01:23:07.451Z,15.72
2022-08-17T01:24:07.433Z,15.67
2022-08-17T01:25:07.421Z,15.64
2022-08-17T01:26:07.411Z,15.61
2022-08-17T01:27:10.178Z,15.59
2022-08-17T01:28:07.401Z,15.59
2022-08-17T01:29:07.371Z,15.59
2022-08-17T01:30:57.047Z,15.60
2022-08-17T01:31:08.350Z,15.60
2022-08-17T01:32:07.342Z,15.63
2022-08-17T01:33:07.340Z,15.63
2022-08-17T01:34:07.319Z,15.64
2022-08-17T01:35:07.299Z,15.64
2022-08-17T01:36:07.373Z,15.64
2022-08-17T01:37:07.280Z,15.66
2022-08-17T01:38:07.283Z,15.67
2022-08-17T01:39:07.278Z,15.67
2022-08-17T01:40:07.339Z,15.67
2022-08-17T01:41:07.237Z,15.64
2022-08-17T01:42:07.229Z,15.63
2022-08-17T01:43:08.149Z,15.59
2022-08-17T01:44:07.231Z,15.56
2022-08-17T01:45:07.201Z,15.56
2022-08-17T01:46:07.178Z,15.56
2022-08-17T01:47:07.199Z,15.54
2022-08-17T01:48:07.161Z,15.56
2022-08-17T01:49:07.150Z,15.54
2022-08-17T01:50:07.159Z,15.56
2022-08-17T01:51:07.118Z,15.54
2022-08-17T01:52:07.109Z,15.57
2022-08-17T01:53:07.088Z,15.57
2022-08-17T01:54:07.790Z,15.60
2022-08-17T01:55:07.076Z,15.59
2022-08-17T01:56:07.076Z,15.61
2022-08-17T01:57:07.057Z,15.61
2022-08-17T01:58:07.038Z,15.61
2022-08-17T01:59:07.043Z,15.60
2022-08-17T02:00:07.016Z,15.60
2022-08-17T02:01:07.098Z,15.60
2022-08-17T02:02:07.006Z,15.60
2022-08-17T02:03:06.982Z,15.61
2022-08-17T02:04:06.971Z,15.59
2022-08-17T02:05:06.957Z,15.61
2022-08-17T02:06:27.130Z,15.59
2022-08-17T02:07:07.937Z,15.59
2022-08-17T02:08:06.925Z,15.59
2022-08-17T02:09:06.909Z,15.59
2022-08-17T02:10:20.060Z,15.59
2022-08-17T02:11:11.249Z,15.57
2022-08-17T02:12:37.966Z,15.57
2022-08-17T02:13:07.875Z,15.57
2022-08-17T02:14:06.855Z,15.57
2022-08-17T02:15:06.836Z,15.57
2022-08-17T02:16:06.826Z,15.57
2022-08-17T02:17:06.817Z,15.56
2022-08-17T02:18:06.816Z,15.54
2022-08-17T02:19:06.786Z,15.54
2022-08-17T02:20:06.785Z,15.54
2022-08-17T02:21:06.774Z,15.52
2022-08-17T02:22:06.755Z,15.54
2022-08-17T02:23:06.760Z,15.52
2022-08-17T02:24:06.765Z,15.49
2022-08-17T02:25:06.724Z,15.48
2022-08-17T02:26:06.712Z,15.48
2022-08-17T02:27:06.704Z,15.45
2022-08-17T02:28:06.683Z,15.43
2022-08-17T02:29:06.676Z,15.43
2022-08-17T02:30:59.330Z,15.43
2022-08-17T02:31:07.652Z,15.43
2022-08-17T02:32:06.634Z,15.42
2022-08-17T02:33:09.235Z,15.41
2022-08-17T02:34:06.613Z,15.41
2022-08-17T02:35:06.613Z,15.39
2022-08-17T02:36:06.623Z,15.39
2022-08-17T02:37:06.584Z,15.36
2022-08-17T02:38:06.563Z,15.35
2022-08-17T02:39:06.562Z,15.33
2022-08-17T02:40:06.589Z,15.33
2022-08-17T02:41:06.533Z,15.35
2022-08-17T02:42:06.540Z,15.35
2022-08-17T02:43:06.516Z,15.33
2022-08-17T02:44:06.494Z,15.35
2022-08-17T02:45:06.493Z,15.33
2022-08-17T02:46:06.471Z,15.31
2022-08-17T02:47:06.472Z,15.28
2022-08-17T02:48:06.461Z,15.26
2022-08-17T02:49:06.442Z,15.26
2022-08-17T02:50:06.432Z,15.24
2022-08-17T02:51:06.421Z,15.23
2022-08-17T02:52:06.401Z,15.20
2022-08-17T02:53:06.639Z,15.20
2022-08-17T02:54:40.471Z,15.20
2022-08-17T02:55:07.370Z,15.19
2022-08-17T02:56:06.362Z,15.19
2022-08-17T02:57:06.353Z,15.20
2022-08-17T02:58:06.330Z,15.21
2022-08-17T02:59:06.351Z,15.23
2022-08-17T03:00:06.311Z,15.21
2022-08-17T03:01:06.306Z,15.26
2022-08-17T03:02:06.342Z,15.23
2022-08-17T03:03:06.280Z,15.23
2022-08-17T03:04:06.272Z,15.20
2022-08-17T03:05:06.291Z,15.19
2022-08-17T03:06:06.239Z,15.15
2022-08-17T03:07:06.239Z,15.13
2022-08-17T03:08:06.219Z,15.13
2022-08-17T03:09:06.210Z,15.11
2022-08-17T03:10:06.199Z,15.09
2022-08-17T03:11:06.200Z,15.08
2022-08-17T03:12:06.179Z,15.06
2022-08-17T03:13:06.168Z,15.06
2022-08-17T03:14:06.150Z,15.05
2022-08-17T03:15:06.138Z,15.06
2022-08-17T03:16:06.139Z,15.08
2022-08-17T03:17:06.145Z,15.03
2022-08-17T03:18:06.106Z,15.03
2022-08-17T03:19:06.098Z,15.02
2022-08-17T03:20:06.078Z,15.02
2022-08-17T03:21:06.081Z,15.01
2022-08-17T03:22:36.186Z,15.01
2022-08-17T03:23:07.047Z,15.01
2022-08-17T03:24:09.039Z,14.99
2022-08-17T03:25:06.694Z,14.98
2022-08-17T03:26:06.019Z,14.95
2022-08-17T03:27:07.006Z,14.94
2022-08-17T03:28:05.987Z,14.95
2022-08-17T03:29:05.978Z,14.94
2022-08-17T03:30:05.969Z,14.93
2022-08-17T03:31:05.968Z,14.93
2022-08-17T03:32:05.948Z,14.94
2022-08-17T03:33:05.937Z,14.93
2022-08-17T03:34:05.926Z,14.94
2022-08-17T03:35:05.946Z,14.95
2022-08-17T03:36:05.896Z,14.94
2022-08-17T03:37:05.897Z,14.94
2022-08-17T03:38:05.867Z,14.94
2022-08-17T03:39:05.864Z,14.93
2022-08-17T03:40:05.905Z,14.91
2022-08-17T03:41:05.844Z,14.93
2022-08-17T03:42:05.826Z,14.91
2022-08-17T03:43:05.827Z,14.90
2022-08-17T03:44:05.820Z,14.91
2022-08-17T03:45:05.797Z,14.90
2022-08-17T03:46:05.887Z,14.91
2022-08-17T03:47:06.771Z,14.90
2022-08-17T03:48:05.755Z,14.93
2022-08-17T03:49:05.754Z,14.93
2022-08-17T03:50:05.733Z,14.94
2022-08-17T03:51:05.725Z,14.93
2022-08-17T03:52:05.729Z,14.91
2022-08-17T03:53:05.704Z,14.94
2022-08-17T03:54:05.685Z,14.93
2022-08-17T03:55:05.687Z,14.90
2022-08-17T03:56:05.664Z,14.88
2022-08-17T03:57:05.657Z,14.90
2022-08-17T03:58:05.657Z,14.91
2022-08-17T03:59:05.635Z,14.91
2022-08-17T04:00:05.613Z,14.90
2022-08-17T04:01:05.650Z,14.90
2022-08-17T04:02:05.594Z,14.91
2022-08-17T04:03:05.603Z,14.93
2022-08-17T04:04:05.563Z,14.90
2022-08-17T04:05:05.565Z,14.93
2022-08-17T04:06:05.544Z,14.93
2022-08-17T04:07:05.546Z,14.91
2022-08-17T04:08:05.535Z,14.88
2022-08-17T04:09:05.523Z,14.87
2022-08-17T04:10:05.493Z,14.86
2022-08-17T04:11:05.500Z,14.87
2022-08-17T04:12:05.492Z,14.84
2022-08-17T04:13:05.482Z,14.83
2022-08-17T04:14:05.471Z,14.84
2022-08-17T04:15:05.444Z,14.84
2022-08-17T04:16:05.433Z,14.84
2022-08-17T04:17:05.424Z,14.83
2022-08-17T04:18:07.338Z,14.83
2022-08-17T04:19:05.404Z,14.83
2022-08-17T04:20:05.382Z,14.81
2022-08-17T04:21:05.382Z,14.81
2022-08-17T04:22:05.362Z,14.75
2022-08-17T04:23:05.352Z,14.71
2022-08-17T04:24:05.341Z,14.72
2022-08-17T04:25:05.409Z,14.68
2022-08-17T04:26:05.311Z,14.64
2022-08-17T04:27:05.303Z,14.61
2022-08-17T04:28:05.293Z,14.61
2022-08-17T04:29:06.282Z,14.60
2022-08-17T04:30:05.271Z,14.57
2022-08-17T04:31:05.271Z,14.57
2022-08-17T04:32:05.251Z,14.61
2022-08-17T04:33:07.281Z,14.61
2022-08-17T04:34:05.220Z,14.64
2022-08-17T04:35:05.221Z,14.65
2022-08-17T04:36:05.200Z,14.68
2022-08-17T04:37:05.199Z,14.68
2022-08-17T04:38:05.172Z,14.69
2022-08-17T04:39:05.172Z,14.71
2022-08-17T04:40:05.244Z,14.72
2022-08-17T04:41:05.139Z,14.74
2022-08-17T04:42:05.128Z,14.72
2022-08-17T04:43:05.119Z,14.71
2022-08-17T04:44:05.117Z,14.69
2022-08-17T04:45:05.100Z,14.71
2022-08-17T04:46:05.093Z,14.71
2022-08-17T04:47:05.084Z,14.74
2022-08-17T04:48:05.057Z,14.72
2022-08-17T04:49:05.048Z,14.68
2022-08-17T04:50:05.037Z,14.64
2022-08-17T04:51:05.087Z,14.64
2022-08-17T04:52:05.019Z,14.65
2022-08-17T04:53:05.021Z,14.67
2022-08-17T04:54:04.988Z,14.71
2022-08-17T04:55:04.987Z,14.72
2022-08-17T04:56:04.967Z,14.74
2022-08-17T04:57:04.968Z,14.80
2022-08-17T04:58:04.949Z,14.80
2022-08-17T04:59:04.972Z,14.84
2022-08-17T05:00:04.917Z,14.87
2022-08-17T05:01:04.933Z,14.88
2022-08-17T05:02:04.914Z,14.93
2022-08-17T05:03:04.889Z,14.94
2022-08-17T05:04:32.982Z,14.98
2022-08-17T05:05:05.868Z,15.02
2022-08-17T05:06:04.846Z,15.03
2022-08-17T05:07:04.872Z,15.05
2022-08-17T05:08:04.826Z,15.08
2022-08-17T05:09:04.821Z,15.11
2022-08-17T05:10:04.805Z,15.17
2022-08-17T05:11:04.795Z,15.17
2022-08-17T05:12:04.805Z,15.19
2022-08-17T05:13:04.776Z,15.23
2022-08-17T05:14:04.756Z,15.26
2022-08-17T05:15:04.756Z,15.28
2022-08-17T05:16:04.738Z,15.30
2022-08-17T05:17:09.402Z,15.33
2022-08-17T05:18:05.724Z,15.39
2022-08-17T05:19:04.705Z,15.39
2022-08-17T05:20:04.685Z,15.45
2022-08-17T05:21:04.688Z,15.51
2022-08-17T05:22:04.665Z,15.51
2022-08-17T05:23:04.659Z,15.57
2022-08-17T05:24:06.066Z,15.60
2022-08-17T05:25:05.633Z,15.64
2022-08-17T05:26:04.614Z,15.67
2022-08-17T05:27:06.501Z,15.72
2022-08-17T05:28:04.602Z,15.74
2022-08-17T05:29:04.614Z,15.81
2022-08-17T05:30:04.574Z,15.82
2022-08-17T05:31:04.564Z,15.86
2022-08-17T05:32:04.553Z,15.92
2022-08-17T05:33:05.545Z,15.93
2022-08-17T05:34:04.532Z,15.96
2022-08-17T05:35:04.532Z,15.99
2022-08-17T05:36:04.506Z,16.00
2022-08-17T05:37:04.496Z,16.06
2022-08-17T05:38:04.473Z,16.12
2022-08-17T05:39:04.474Z,16.15
2022-08-17T05:40:04.555Z,16.20
2022-08-17T05:41:04.446Z,16.26
2022-08-17T05:42:04.442Z,16.31
2022-08-17T05:43:04.422Z,16.34
2022-08-17T05:44:05.567Z,16.40
2022-08-17T05:45:04.422Z,16.44
2022-08-17T05:46:04.391Z,16.49
2022-08-17T05:47:04.376Z,16.53
2022-08-17T05:48:04.362Z,16.58
2022-08-17T05:49:04.361Z,16.65
2022-08-17T05:50:09.485Z,16.70
2022-08-17T05:51:05.344Z,16.75
2022-08-17T05:52:04.311Z,16.81
2022-08-17T05:53:04.311Z,16.85
2022-08-17T05:54:04.291Z,16.89
2022-08-17T05:55:04.283Z,16.95
2022-08-17T05:56:04.272Z,16.99
2022-08-17T05:57:04.275Z,17.03
2022-08-17T05:58:04.241Z,17.08
2022-08-17T05:59:04.232Z,17.13
2022-08-17T06:00:04.221Z,17.20
2022-08-17T06:01:04.274Z,17.23
2022-08-17T06:02:04.258Z,17.32
2022-08-17T06:03:04.193Z,17.38
2022-08-17T06:04:04.181Z,17.41
2022-08-17T06:05:04.170Z,17.47
2022-08-17T06:06:04.151Z,17.51
2022-08-17T06:07:04.161Z,17.62
2022-08-17T06:08:04.130Z,17.67
2022-08-17T06:09:04.120Z,17.73
2022-08-17T06:10:04.102Z,17.81
2022-08-17T06:11:04.100Z,17.84
2022-08-17T06:12:04.082Z,17.91
2022-08-17T06:13:04.090Z,17.94
2022-08-17T06:14:04.059Z,18.02
2022-08-17T06:15:04.050Z,18.06
2022-08-17T06:16:04.039Z,18.13
2022-08-17T06:17:04.038Z,18.15
2022-08-17T06:18:04.011Z,18.22
2022-08-17T06:19:04.010Z,18.28
2022-08-17T06:20:03.989Z,18.33
2022-08-17T06:21:03.980Z,18.37
2022-08-17T06:22:03.981Z,18.43
2022-08-17T06:23:03.968Z,18.49
2022-08-17T06:24:03.939Z,18.55
2022-08-17T06:25:03.930Z,18.59
2022-08-17T06:26:04.919Z,18.65
2022-08-17T06:27:03.911Z,18.72
2022-08-17T06:28:03.908Z,18.74
2022-08-17T06:29:03.889Z,18.77
2022-08-17T06:30:03.872Z,18.83
2022-08-17T06:31:03.871Z,18.90
2022-08-17T06:32:03.850Z,18.97
2022-08-17T06:33:03.839Z,19.01
2022-08-17T06:34:03.838Z,19.06
2022-08-17T06:35:03.818Z,19.11
2022-08-17T06:36:07.974Z,19.17
2022-08-17T06:37:04.796Z,19.21
2022-08-17T06:38:03.788Z,19.24
2022-08-17T06:39:03.768Z,19.28
2022-08-17T06:40:03.798Z,19.31
2022-08-17T06:41:03.755Z,19.36
2022-08-17T06:42:03.738Z,19.40
2022-08-17T06:43:06.839Z,19.43
2022-08-17T06:44:03.708Z,19.47
2022-08-17T06:45:03.707Z,19.53
2022-08-17T06:46:04.110Z,19.57
2022-08-17T06:47:03.678Z,19.60
2022-08-17T06:48:03.658Z,19.63
2022-08-17T06:49:03.667Z,19.70
2022-08-17T06:50:03.638Z,19.75
2022-08-17T06:51:03.637Z,19.79
2022-08-17T06:52:03.617Z,19.84
2022-08-17T06:53:03.609Z,19.88
2022-08-17T06:54:03.607Z,19.91
2022-08-17T06:55:03.587Z,19.97
2022-08-17T06:56:03.569Z,20.02
2022-08-17T06:57:03.559Z,20.06
2022-08-17T06:58:05.854Z,20.10
2022-08-17T06:59:04.568Z,20.18
2022-08-17T07:00:03.684Z,20.25
2022-08-17T07:01:03.551Z,20.28
2022-08-17T07:02:03.604Z,20.34
2022-08-17T07:03:03.872Z,20.42
2022-08-17T07:04:05.145Z,20.49
2022-08-17T07:05:04.487Z,20.59
2022-08-17T07:06:03.476Z,20.65
2022-08-17T07:07:03.446Z,20.74
2022-08-17T07:08:03.430Z,20.81
2022-08-17T07:09:03.446Z,20.86
2022-08-17T07:10:03.408Z,20.91
2022-08-17T07:11:03.395Z,21.04
2022-08-17T07:12:03.386Z,21.14
2022-08-17T07:13:03.376Z,21.20
2022-08-17T07:14:03.358Z,21.27
2022-08-17T07:15:03.367Z,21.30
2022-08-17T07:16:03.343Z,21.36
2022-08-17T07:17:03.325Z,21.39
2022-08-17T07:18:03.510Z,21.44
2022-08-17T07:19:03.311Z,21.53
2022-08-17T07:20:03.303Z,21.59
2022-08-17T07:21:03.291Z,21.63
2022-08-17T07:22:03.277Z,21.67
2022-08-17T07:23:03.255Z,21.72
2022-08-17T07:24:03.252Z,21.82
2022-08-17T07:25:03.244Z,21.85
2022-08-17T07:26:03.225Z,21.91
2022-08-17T07:27:03.217Z,21.95
2022-08-17T07:28:06.008Z,22.01
2022-08-17T07:29:03.185Z,22.06
2022-08-17T07:30:08.024Z,22.10
2022-08-17T07:31:04.165Z,22.12
2022-08-17T07:32:03.173Z,22.16
2022-08-17T07:33:03.144Z,22.22
2022-08-17T07:34:03.133Z,22.28
2022-08-17T07:35:03.124Z,22.35
2022-08-17T07:36:03.105Z,22.43
2022-08-17T07:37:03.097Z,22.49
2022-08-17T07:38:03.093Z,22.54
2022-08-17T07:39:03.079Z,22.62
2022-08-17T07:40:16.427Z,22.68
2022-08-17T07:41:04.065Z,22.72
2022-08-17T07:42:03.045Z,22.77
2022-08-17T07:43:03.282Z,22.80
2022-08-17T07:44:03.015Z,22.84
2022-08-17T07:45:03.036Z,22.86
2022-08-17T07:46:03.010Z,22.90
2022-08-17T07:47:03.025Z,22.94
2022-08-17T07:48:02.964Z,23.01
2022-08-17T07:49:02.973Z,23.04
2022-08-17T07:50:02.945Z,23.09
2022-08-17T07:51:02.935Z,23.14
2022-08-17T07:52:48.292Z,23.15
2022-08-17T07:53:03.926Z,23.22
2022-08-17T07:54:14.040Z,23.27
2022-08-17T07:55:03.885Z,23.35
2022-08-17T07:56:02.884Z,23.42
2022-08-17T07:57:02.874Z,23.43
2022-08-17T07:58:02.854Z,23.46
2022-08-17T07:59:02.846Z,23.49
2022-08-17T08:00:03.005Z,23.52
2022-08-17T08:01:02.824Z,23.61
2022-08-17T08:02:02.869Z,23.64
2022-08-17T08:03:02.794Z,23.67
2022-08-17T08:04:02.789Z,23.75
2022-08-17T08:05:02.786Z,23.79
2022-08-17T08:06:02.766Z,23.82
2022-08-17T08:07:02.752Z,23.87
2022-08-17T08:08:02.734Z,23.89
2022-08-17T08:09:02.728Z,23.97
2022-08-17T08:10:02.724Z,23.97
2022-08-17T08:11:02.715Z,24.01
2022-08-17T08:12:02.692Z,24.07
2022-08-17T08:13:02.734Z,24.13
2022-08-17T08:14:02.665Z,24.16
2022-08-17T08:15:02.653Z,24.20
2022-08-17T08:16:02.666Z,24.24
2022-08-17T08:17:02.626Z,24.23
2022-08-17T08:18:02.613Z,24.24
2022-08-17T08:19:02.613Z,24.23
2022-08-17T08:20:34.958Z,24.29
2022-08-17T08:21:03.602Z,24.35
2022-08-17T08:22:02.571Z,24.37
2022-08-17T08:23:02.619Z,24.35
2022-08-17T08:24:02.554Z,24.39
2022-08-17T08:25:02.541Z,24.42
2022-08-17T08:26:02.524Z,24.44
2022-08-17T08:27:02.523Z,24.42
2022-08-17T08:28:02.504Z,24.44
2022-08-17T08:29:02.484Z,24.42
2022-08-17T08:30:02.481Z,24.44
2022-08-17T08:31:02.465Z,24.47
2022-08-17T08:32:02.473Z,24.49
2022-08-17T08:33:02.441Z,24.49
2022-08-17T08:34:02.433Z,24.52
2022-08-17T08:35:03.387Z,24.53
2022-08-17T08:36:02.413Z,24.60
2022-08-17T08:37:16.450Z,24.63
2022-08-17T08:38:03.401Z,24.68
2022-08-17T08:39:02.376Z,24.73
2022-08-17T08:40:02.446Z,24.73
2022-08-17T08:41:02.355Z,24.76
2022-08-17T08:42:02.365Z,24.77
2022-08-17T08:43:02.342Z,24.80
2022-08-17T08:44:02.326Z,24.82
2022-08-17T08:45:04.791Z,24.88
2022-08-17T08:46:02.310Z,24.88
2022-08-17T08:47:02.285Z,24.92
2022-08-17T08:48:05.738Z,24.95
2022-08-17T08:49:06.484Z,24.98
2022-08-17T08:50:04.717Z,25.05
2022-08-17T08:51:02.248Z,25.05
2022-08-17T08:52:02.233Z,25.06
2022-08-17T08:53:02.214Z,25.10
2022-08-17T08:54:02.213Z,25.13
2022-08-17T08:55:02.205Z,25.12
2022-08-17T08:56:02.182Z,25.15
2022-08-17T08:57:23.333Z,25.17
2022-08-17T08:58:03.166Z,25.19
2022-08-17T08:59:02.151Z,25.22
2022-08-17T09:00:02.133Z,25.24
2022-08-17T09:01:02.160Z,25.25
2022-08-17T09:02:02.114Z,25.30
2022-08-17T09:03:02.092Z,25.35
2022-08-17T09:04:19.592Z,25.37
2022-08-17T09:05:14.354Z,25.44
2022-08-17T09:06:03.094Z,25.52
2022-08-17T09:07:02.053Z,25.61
2022-08-17T09:08:02.033Z,25.65
2022-08-17T09:09:02.045Z,25.68
2022-08-17T09:10:02.022Z,25.72
2022-08-17T09:11:02.034Z,25.80
2022-08-17T09:12:03.875Z,25.84
2022-08-17T09:13:09.547Z,25.90
2022-08-17T09:14:02.971Z,25.93
2022-08-17T09:15:02.023Z,25.99
2022-08-17T09:16:01.955Z,26.02
2022-08-17T09:17:01.944Z,26.02
2022-08-17T09:18:30.462Z,26.02
2022-08-17T09:19:04.768Z,26.05
2022-08-17T09:20:01.910Z,26.08
2022-08-17T09:21:01.896Z,26.12
2022-08-17T09:22:01.893Z,26.11
2022-08-17T09:23:01.873Z,26.11
2022-08-17T09:24:01.862Z,26.11
2022-08-17T09:25:01.856Z,26.17
2022-08-17T09:26:01.844Z,26.21
2022-08-17T09:27:01.842Z,26.25
2022-08-17T09:28:01.813Z,26.29
2022-08-17T09:29:01.805Z,26.32
2022-08-17T09:30:01.793Z,26.40
2022-08-17T09:31:01.816Z,26.42
2022-08-17T09:32:01.775Z,26.50
2022-08-17T09:33:01.772Z,26.54
2022-08-17T09:34:01.741Z,26.57
2022-08-17T09:35:01.747Z,26.61
2022-08-17T09:36:01.724Z,26.65
2022-08-17T09:37:01.712Z,26.67
2022-08-17T09:38:01.697Z,26.67
2022-08-17T09:39:01.684Z,26.65
2022-08-17T09:40:01.796Z,26.72
2022-08-17T09:41:01.693Z,26.80
2022-08-17T09:42:01.673Z,26.86
2022-08-17T09:43:01.635Z,26.91
2022-08-17T09:44:01.624Z,26.99
2022-08-17T09:45:01.612Z,27.05
2022-08-17T09:46:01.633Z,27.09
2022-08-17T09:47:01.583Z,27.09
2022-08-17T09:48:01.581Z,27.05
2022-08-17T09:49:01.564Z,27.01
2022-08-17T09:50:01.557Z,27.01
2022-08-17T09:51:05.342Z,27.02
2022-08-17T09:52:01.544Z,27.04
2022-08-17T09:53:01.527Z,27.05
2022-08-17T09:54:20.922Z,27.05
2022-08-17T09:55:02.493Z,27.09
2022-08-17T09:56:01.482Z,27.13
2022-08-17T09:57:27.887Z,27.16
2022-08-17T09:58:02.550Z,27.17
2022-08-17T09:59:01.453Z,27.23
2022-08-17T10:00:01.441Z,27.21
2022-08-17T10:01:01.496Z,27.20
2022-08-17T10:02:01.414Z,27.19
2022-08-17T10:03:01.422Z,27.20
2022-08-17T10:04:01.402Z,27.17
2022-08-17T10:05:01.387Z,27.11
2022-08-17T10:06:01.374Z,27.06
2022-08-17T10:07:01.372Z,27.10
2022-08-17T10:08:01.346Z,27.19
2022-08-17T10:09:01.342Z,27.23
2022-08-17T10:10:01.326Z,27.24
2022-08-17T10:11:01.313Z,27.32
2022-08-17T10:12:01.324Z,27.38
2022-08-17T10:13:01.302Z,27.41
2022-08-17T10:14:01.282Z,27.48
2022-08-17T10:15:08.117Z,27.50
2022-08-17T10:16:02.256Z,27.51
2022-08-17T10:17:01.245Z,27.54
2022-08-17T10:18:01.247Z,27.58
2022-08-17T10:19:01.231Z,27.54
2022-08-17T10:20:01.306Z,27.53
2022-08-17T10:21:01.202Z,27.58
2022-08-17T10:22:32.461Z,27.58
2022-08-17T10:23:02.194Z,27.61
2022-08-17T10:24:01.163Z,27.59
2022-08-17T10:25:21.760Z,27.54
2022-08-17T10:26:02.145Z,27.51
2022-08-17T10:27:01.135Z,27.46
2022-08-17T10:28:01.122Z,27.46
2022-08-17T10:29:01.124Z,27.43
2022-08-17T10:30:01.093Z,27.46
2022-08-17T10:31:31.052Z,27.41
2022-08-17T10:32:03.017Z,27.39
2022-08-17T10:33:01.074Z,27.36
2022-08-17T10:34:01.064Z,27.36
2022-08-17T10:35:01.060Z,27.38
2022-08-17T10:36:01.030Z,27.36
2022-08-17T10:37:01.052Z,27.41
2022-08-17T10:38:01.002Z,27.42
2022-08-17T10:39:00.994Z,27.51
2022-08-17T10:40:01.039Z,27.57
2022-08-17T10:41:01.001Z,27.57
2022-08-17T10:42:00.991Z,27.58
2022-08-17T10:43:00.953Z,27.71
2022-08-17T10:44:40.425Z,27.80
2022-08-17T10:45:01.930Z,27.88
2022-08-17T10:46:09.458Z,27.96
2022-08-17T10:47:01.912Z,28.07
2022-08-17T10:48:05.198Z,28.19
2022-08-17T10:49:01.872Z,28.25
2022-08-17T10:50:00.863Z,28.29
2022-08-17T10:51:00.864Z,28.31
2022-08-17T10:52:00.860Z,28.25
2022-08-17T10:53:00.833Z,28.13
2022-08-17T10:54:00.856Z,28.04
2022-08-17T10:55:00.813Z,27.95
2022-08-17T10:56:00.792Z,27.91
2022-08-17T10:57:00.783Z,27.84
2022-08-17T10:58:00.792Z,27.84
2022-08-17T10:59:00.772Z,27.79
2022-08-17T11:00:00.753Z,27.76
2022-08-17T11:01:00.798Z,27.91
2022-08-17T11:02:00.733Z,28.04
2022-08-17T11:03:00.725Z,28.17
2022-08-17T11:04:00.717Z,28.28
2022-08-17T11:05:00.693Z,28.32
2022-08-17T11:06:00.684Z,28.28
2022-08-17T11:07:00.673Z,28.33
2022-08-17T11:08:00.700Z,28.38
2022-08-17T11:09:00.655Z,28.44
2022-08-17T11:10:00.662Z,28.54
2022-08-17T11:11:00.622Z,28.62
2022-08-17T11:12:00.612Z,28.70
2022-08-17T11:13:00.603Z,28.81
2022-08-17T11:14:00.594Z,28.91
2022-08-17T11:15:00.588Z,29.01
2022-08-17T11:16:03.534Z,29.11
2022-08-17T11:17:01.563Z,29.18
2022-08-17T11:18:00.543Z,29.20
2022-08-17T11:19:00.532Z,29.23
2022-08-17T11:20:00.523Z,29.28
2022-08-17T11:21:00.561Z,29.34
2022-08-17T11:22:00.601Z,29.45
2022-08-17T11:23:00.492Z,29.52
2022-08-17T11:24:00.472Z,29.59
2022-08-17T11:25:00.461Z,29.63
2022-08-17T11:26:00.463Z,29.65
2022-08-17T11:27:00.461Z,29.71
2022-08-17T11:28:00.432Z,29.79
2022-08-17T11:29:00.421Z,29.78
2022-08-17T11:30:02.489Z,29.78
2022-08-17T11:31:00.391Z,29.81
2022-08-17T11:32:00.392Z,29.78
2022-08-17T11:33:00.400Z,29.87
2022-08-17T11:34:00.363Z,29.97
2022-08-17T11:35:00.352Z,30.08
2022-08-17T11:36:00.343Z,30.16
2022-08-17T11:37:00.322Z,30.00
2022-08-17T11:38:00.322Z,29.84
2022-08-17T11:39:00.313Z,29.74
2022-08-17T11:40:00.380Z,29.63
2022-08-17T11:41:00.296Z,29.52
2022-08-17T11:42:00.291Z,29.40
2022-08-17T11:43:00.252Z,29.31
2022-08-17T11:44:00.261Z,29.22
2022-08-17T11:45:00.232Z,29.11
2022-08-17T11:46:00.223Z,29.03
2022-08-17T11:47:00.213Z,28.90
2022-08-17T11:48:26.042Z,28.80
2022-08-17T11:49:01.202Z,28.72
2022-08-17T11:50:00.186Z,28.62
2022-08-17T11:51:00.163Z,28.58
2022-08-17T11:52:00.162Z,28.46
2022-08-17T11:53:00.142Z,28.44
2022-08-17T11:54:30.587Z,28.41
2022-08-17T11:55:24.206Z,28.38
2022-08-17T11:56:01.113Z,28.36
2022-08-17T11:57:00.102Z,28.25
2022-08-17T11:58:00.091Z,28.19
2022-08-17T11:59:00.075Z,28.16
2022-08-17T12:00:00.100Z,28.14
2022-08-17T12:01:00.060Z,28.13
2022-08-17T12:02:00.065Z,28.11
2022-08-17T12:03:00.032Z,28.13
2022-08-17T12:04:00.106Z,28.16
2022-08-17T12:05:00.012Z,28.21
2022-08-17T12:06:00.004Z,28.29
2022-08-17T12:06:59.993Z,28.36
2022-08-17T12:07:59.979Z,28.38
2022-08-17T12:08:59.962Z,28.46
2022-08-17T12:09:59.954Z,28.66
2022-08-17T12:10:59.942Z,28.81
2022-08-17T12:12:13.117Z,28.85
2022-08-17T12:13:00.913Z,28.80
2022-08-17T12:13:59.903Z,28.70
2022-08-17T12:15:10.459Z,28.66
2022-08-17T12:16:00.882Z,28.63
2022-08-17T12:16:59.872Z,28.63
2022-08-17T12:17:59.872Z,28.65
2022-08-17T12:18:59.851Z,28.65
2022-08-17T12:19:59.842Z,28.78
2022-08-17T12:20:59.830Z,28.90
2022-08-17T12:21:59.812Z,28.96
2022-08-17T12:22:59.805Z,29.07
2022-08-17T12:23:59.805Z,29.13
2022-08-17T12:24:59.785Z,29.22
2022-08-17T12:25:59.772Z,29.22
2022-08-17T12:26:59.764Z,29.25
2022-08-17T12:28:06.168Z,29.26
2022-08-17T12:29:01.053Z,29.29
2022-08-17T12:29:59.740Z,29.33
2022-08-17T12:30:59.714Z,29.33
2022-08-17T12:31:59.704Z,29.34
2022-08-17T12:32:59.698Z,29.29
2022-08-17T12:33:59.683Z,29.20
2022-08-17T12:34:59.672Z,29.15
2022-08-17T12:35:59.883Z,29.08
2022-08-17T12:36:59.642Z,29.13
2022-08-17T12:37:59.653Z,29.07
2022-08-17T12:38:59.625Z,29.06
2022-08-17T12:40:00.666Z,28.97
2022-08-17T12:40:59.604Z,28.93
2022-08-17T12:42:02.395Z,28.95
2022-08-17T12:42:59.572Z,28.95
2022-08-17T12:43:59.563Z,28.90
2022-08-17T12:44:59.553Z,28.88
2022-08-17T12:45:59.545Z,28.95
2022-08-17T12:46:59.534Z,28.90
2022-08-17T12:47:59.534Z,28.82
2022-08-17T12:49:00.189Z,28.80
2022-08-17T12:49:59.502Z,28.78
2022-08-17T12:50:59.492Z,28.80
2022-08-17T12:51:59.472Z,28.77